Time;durP1;ratioP1;P1;durP2;ratioP2;P2;SDS_P1;SDS_P2;PMS_P1;PMS_P2;Temp;Humidity;BMP_temperature;BMP_pressure;BME280_temperature;BME280_humidity;BME280_pressure;Samples;Min_cycle;Max_cycle;Signal;HPM_P1;HPM_P2
2024/02/16 00:00:12;;;;;;;26.00;18.33;;;;;;;1.17;100.00;98058.97;6307910;28;20212;-54
2024/02/16 00:03:15;;;;;;;29.83;19.97;;;;;;;1.16;100.00;98057.34;6308948;28;20205;-53
2024/02/16 00:06:17;;;;;;;32.13;20.43;;;;;;;1.01;100.00;98057.25;6307751;28;20203;-53
2024/02/16 00:09:19;;;;;;;26.27;19.07;;;;;;;1.07;100.00;98061.00;6305374;28;20197;-52
2024/02/16 00:12:22;;;;;;;31.33;19.33;;;;;;;1.22;100.00;98060.09;6314388;28;20563;-53
2024/02/16 00:15:24;;;;;;;29.87;19.20;;;;;;;1.07;100.00;98058.38;6303290;28;20202;-53
2024/02/16 00:18:26;;;;;;;30.57;19.77;;;;;;;1.06;100.00;98057.56;6311903;28;20747;-52
2024/02/16 00:21:29;;;;;;;29.13;20.20;;;;;;;1.03;100.00;98056.13;6305666;28;20285;-53
2024/02/16 00:24:31;;;;;;;30.83;20.53;;;;;;;1.06;100.00;98056.75;6306325;28;20201;-53
2024/02/16 00:27:34;;;;;;;23.13;18.13;;;;;;;1.37;100.00;98052.28;6309172;28;20195;-52
2024/02/16 00:30:36;;;;;;;28.00;18.27;;;;;;;1.05;100.00;98055.13;6310195;28;20913;-53
2024/02/16 00:33:39;;;;;;;31.73;18.80;;;;;;;1.03;100.00;98043.00;6301688;28;20235;-53
2024/02/16 00:36:41;;;;;;;26.83;19.73;;;;;;;0.82;100.00;98021.78;6311239;28;20561;-53
2024/02/16 00:39:43;;;;;;;28.00;20.50;;;;;;;0.94;100.00;98038.78;6304647;28;20205;-52
2024/02/16 00:42:45;;;;;;;30.00;20.00;;;;;;;1.05;100.00;98040.19;6304681;28;20209;-56
2024/02/16 00:45:48;;;;;;;25.00;18.57;;;;;;;0.98;100.00;98042.66;6301674;28;20551;-53
2024/02/16 00:48:53;;;;;;;31.07;19.73;;;;;;;0.89;100.00;98040.28;6308031;28;20200;-52
2024/02/16 00:51:56;;;;;;;27.33;18.53;;;;;;;1.00;100.00;98039.91;6311017;28;20637;-53
2024/02/16 00:55:00;;;;;;;28.83;20.10;;;;;;;0.98;100.00;98032.19;6306521;28;20191;-54
2024/02/16 00:58:02;;;;;;;28.93;19.13;;;;;;;1.06;100.00;98027.91;6304742;28;20192;-54
2024/02/16 01:01:04;;;;;;;25.23;18.67;;;;;;;0.96;100.00;98028.09;6311683;28;20653;-53
2024/02/16 01:04:07;;;;;;;25.67;18.80;;;;;;;0.81;100.00;98025.41;6312065;28;20570;-54
2024/02/16 01:07:09;;;;;;;28.60;19.20;;;;;;;0.81;100.00;98019.34;6312293;28;20195;-51
2024/02/16 01:10:14;;;;;;;30.70;20.33;;;;;;;0.93;100.00;98015.31;6303269;28;20191;-52
2024/02/16 01:13:16;;;;;;;21.63;16.43;;;;;;;0.83;100.00;98020.78;6307400;28;20224;-53
2024/02/16 01:16:18;;;;;;;27.43;18.97;;;;;;;0.82;100.00;98015.72;6301465;28;20575;-52
2024/02/16 01:19:20;;;;;;;23.40;17.63;;;;;;;0.74;100.00;98006.91;6305854;28;20214;-53
2024/02/16 01:22:23;;;;;;;24.87;17.33;;;;;;;0.69;100.00;98014.47;6308397;28;20563;-51
2024/02/16 01:25:25;;;;;;;23.90;17.70;;;;;;;0.73;100.00;98012.31;6303869;28;20204;-53
2024/02/16 01:28:27;;;;;;;26.93;18.20;;;;;;;0.64;100.00;98002.84;6309378;28;20195;-54
2024/02/16 01:31:29;;;;;;;22.77;16.60;;;;;;;0.62;100.00;98010.88;6307340;28;20192;-52
2024/02/16 01:34:31;;;;;;;22.57;17.00;;;;;;;0.57;100.00;98004.53;6296145;28;20196;-50
2024/02/16 01:37:33;;;;;;;26.03;16.93;;;;;;;0.45;100.00;98006.72;6304504;28;20206;-50
2024/02/16 01:40:36;;;;;;;27.73;16.77;;;;;;;0.52;100.00;98002.41;6302529;28;20227;-52
2024/02/16 01:43:38;;;;;;;23.27;16.93;;;;;;;0.45;100.00;97997.03;6297669;28;20566;-51
2024/02/16 01:46:40;;;;;;;31.23;17.40;;;;;;;0.48;100.00;98004.56;6301605;28;20614;-51
2024/02/16 01:49:42;;;;;;;30.10;19.20;;;;;;;0.39;100.00;97999.50;6305464;28;20187;-54
2024/02/16 01:52:46;;;;;;;26.63;18.03;;;;;;;0.45;100.00;97988.38;6309609;28;20694;-52
2024/02/16 01:55:49;;;;;;;25.33;18.03;;;;;;;0.41;100.00;97992.31;6300660;28;20282;-53
2024/02/16 01:58:51;;;;;;;25.37;18.10;;;;;;;0.41;100.00;97994.94;6303591;28;20502;-53
2024/02/16 02:01:54;;;;;;;23.60;17.53;;;;;;;0.36;100.00;97992.00;6305420;28;20201;-53
2024/02/16 02:04:56;;;;;;;26.83;18.03;;;;;;;0.35;100.00;97985.94;6309818;28;20185;-53
2024/02/16 02:07:59;;;;;;;25.67;17.43;;;;;;;0.35;100.00;97979.91;6312514;28;20271;-51
2024/02/16 02:11:02;;;;;;;25.60;18.30;;;;;;;0.32;100.00;97983.66;6309815;28;20571;-52
2024/02/16 02:14:04;;;;;;;26.97;16.30;;;;;;;0.28;100.00;97976.31;6317600;28;20194;-53
2024/02/16 02:17:06;;;;;;;25.90;17.63;;;;;;;0.34;100.00;97983.47;6310693;28;20182;-49
2024/02/16 02:20:10;;;;;;;26.60;17.60;;;;;;;0.32;100.00;97973.19;6310607;28;20195;-52
2024/02/16 02:23:13;;;;;;;38.33;22.97;;;;;;;0.32;100.00;97969.75;6301820;28;20566;-51
2024/02/16 02:26:18;;;;;;;35.33;23.60;;;;;;;0.38;100.00;97972.50;6297844;28;20263;-51
2024/02/16 02:29:20;;;;;;;26.17;16.80;;;;;;;0.24;100.00;97960.91;6314882;28;20188;-52
2024/02/16 02:32:22;;;;;;;22.30;16.37;;;;;;;0.40;100.00;97964.47;6314235;28;20190;-54
2024/02/16 02:35:25;;;;;;;26.00;16.20;;;;;;;0.35;100.00;97958.94;6308901;28;20187;-53
2024/02/16 02:38:27;;;;;;;23.53;16.27;;;;;;;0.28;100.00;97960.56;6308515;28;20719;-52
2024/02/16 02:41:29;;;;;;;22.80;14.70;;;;;;;0.51;100.00;97959.66;6301171;28;20243;-53
2024/02/16 02:44:31;;;;;;;20.43;14.63;;;;;;;0.21;100.00;97956.03;6300463;28;20186;-53
2024/02/16 02:47:34;;;;;;;21.60;15.23;;;;;;;0.10;100.00;97959.00;6305304;28;20656;-54
2024/02/16 02:50:36;;;;;;;20.37;15.37;;;;;;;0.21;100.00;97953.41;6306386;28;20820;-53
2024/02/16 02:53:38;;;;;;;24.73;16.47;;;;;;;0.21;100.00;97949.97;6312350;28;20276;-52
2024/02/16 02:56:40;;;;;;;26.93;15.57;;;;;;;0.32;100.00;97957.44;6303917;28;20662;-53
2024/02/16 02:59:42;;;;;;;23.23;14.73;;;;;;;0.20;100.00;97948.34;6303126;28;20719;-52
2024/02/16 03:02:44;;;;;;;17.87;13.23;;;;;;;0.45;100.00;97951.69;6309907;28;20196;-53
2024/02/16 03:05:48;;;;;;;21.87;15.37;;;;;;;0.24;100.00;97950.44;6310578;28;20196;-53
2024/02/16 03:08:50;;;;;;;22.30;14.57;;;;;;;0.21;100.00;97942.13;6304802;28;20190;-54
2024/02/16 03:11:52;;;;;;;23.23;14.07;;;;;;;0.23;100.00;97927.84;6307337;28;20200;-50
2024/02/16 03:14:56;;;;;;;21.00;14.67;;;;;;;0.25;100.00;97949.47;6294249;28;20317;-52
2024/02/16 03:17:58;;;;;;;17.53;13.23;;;;;;;0.40;100.00;97946.13;6299162;28;20198;-51
2024/02/16 03:21:01;;;;;;;15.87;12.43;;;;;;;0.05;100.00;97944.75;6310748;28;20687;-52
2024/02/16 03:24:04;;;;;;;20.50;13.23;;;;;;;0.02;100.00;97935.47;6306496;28;20197;-52
2024/02/16 03:27:06;;;;;;;19.10;12.80;;;;;;;0.06;100.00;97936.75;6310811;28;20210;-52
2024/02/16 03:30:08;;;;;;;18.73;13.33;;;;;;;0.06;100.00;97939.38;6308821;28;20193;-53
2024/02/16 03:33:11;;;;;;;19.40;13.27;;;;;;;0.32;100.00;97941.72;6306131;28;20265;-52
2024/02/16 03:36:14;;;;;;;18.57;11.87;;;;;;;0.38;100.00;97943.66;6312543;28;20833;-51
2024/02/16 03:39:19;;;;;;;17.10;12.87;;;;;;;0.08;100.00;97942.63;6308606;28;20215;-54
2024/02/16 03:42:22;;;;;;;17.53;12.07;;;;;;;0.08;100.00;97944.44;6310452;28;20231;-52
2024/02/16 03:45:26;;;;;;;18.30;12.20;;;;;;;0.02;100.00;97945.94;6307020;28;20565;-52
2024/02/16 03:48:30;;;;;;;21.50;12.70;;;;;;;0.15;100.00;97945.41;6306798;28;20202;-52
2024/02/16 03:51:32;;;;;;;21.17;13.30;;;;;;;0.25;100.00;97948.66;6304171;28;20179;-53
2024/02/16 03:54:34;;;;;;;19.43;13.10;;;;;;;0.03;100.00;97952.81;6305394;28;20186;-51
2024/02/16 03:57:40;;;;;;;18.77;12.30;;;;;;;0.16;100.00;97949.66;6307696;28;20195;-52
2024/02/16 04:00:43;;;;;;;17.23;12.43;;;;;;;0.08;100.00;97945.25;6304506;28;20711;-53
2024/02/16 04:03:45;;;;;;;20.43;12.60;;;;;;;-0.01;100.00;97947.06;6297382;28;20187;-52
2024/02/16 04:06:47;;;;;;;17.97;12.53;;;;;;;0.05;100.00;97947.38;6293994;28;20183;-51
2024/02/16 04:09:50;;;;;;;20.57;12.20;;;;;;;0.17;100.00;97953.91;6313389;28;20203;-52
2024/02/16 04:12:52;;;;;;;16.37;10.80;;;;;;;0.29;100.00;97947.31;6305875;28;20844;-51
2024/02/16 04:15:54;;;;;;;15.27;11.43;;;;;;;0.21;100.00;97934.25;6303969;28;20194;-52
2024/02/16 04:18:56;;;;;;;14.10;10.43;;;;;;;0.17;100.00;97944.25;6313429;28;20262;-51
2024/02/16 04:21:59;;;;;;;13.30;9.70;;;;;;;0.21;100.00;97950.78;6311952;28;20191;-49
2024/02/16 04:25:01;;;;;;;15.67;10.17;;;;;;;0.25;100.00;97948.66;6301323;28;20182;-51
2024/02/16 04:28:04;;;;;;;14.97;11.70;;;;;;;0.33;100.00;97953.84;6305513;28;20200;-52
2024/02/16 04:31:06;;;;;;;23.17;13.37;;;;;;;0.27;100.00;97951.09;6303773;28;20701;-54
2024/02/16 04:34:09;;;;;;;12.83;9.93;;;;;;;0.34;100.00;97954.66;6300269;28;20237;-54
2024/02/16 04:37:11;;;;;;;12.87;9.80;;;;;;;0.22;100.00;97954.22;6312210;28;20566;-52
2024/02/16 04:40:13;;;;;;;12.30;10.13;;;;;;;0.42;100.00;97960.69;6311624;28;20269;-51
2024/02/16 04:43:16;;;;;;;13.83;9.77;;;;;;;0.33;100.00;97951.22;6305984;28;20199;-53
2024/02/16 04:46:18;;;;;;;14.17;10.23;;;;;;;0.25;100.00;97956.50;6307079;28;20562;-53
2024/02/16 04:49:21;;;;;;;12.53;9.03;;;;;;;0.46;100.00;97953.31;6308598;28;20190;-53
2024/02/16 04:52:23;;;;;;;14.47;9.30;;;;;;;0.30;100.00;97958.63;6310070;28;20273;-53
2024/02/16 04:55:31;;;;;;;12.13;8.60;;;;;;;0.45;100.00;97956.91;6304877;28;20205;-52
2024/02/16 04:58:33;;;;;;;14.13;8.97;;;;;;;0.24;100.00;97954.84;6312609;28;20202;-51
2024/02/16 05:01:35;;;;;;;12.53;8.67;;;;;;;0.19;100.00;97928.34;6309035;28;20690;-53
2024/02/16 05:04:37;;;;;;;11.93;9.10;;;;;;;0.11;100.00;97952.78;6305810;28;20655;-54
2024/02/16 05:07:41;;;;;;;16.20;9.20;;;;;;;0.42;100.00;97952.81;6297877;28;20190;-52
2024/02/16 05:10:43;;;;;;;13.77;8.47;;;;;;;0.36;100.00;97956.13;6293947;28;20224;-51
2024/02/16 05:13:45;;;;;;;11.80;8.63;;;;;;;0.16;100.00;97953.09;6305664;28;20201;-53
2024/02/16 05:16:47;;;;;;;12.90;8.90;;;;;;;-0.02;100.00;97957.72;6309040;28;20194;-49
2024/02/16 05:19:50;;;;;;;14.17;9.27;;;;;;;0.02;100.00;97955.59;6305544;28;20241;-53
2024/02/16 05:22:52;;;;;;;13.17;8.90;;;;;;;0.19;100.00;97959.78;6307181;28;20200;-53
2024/02/16 05:25:56;;;;;;;12.27;9.50;;;;;;;0.09;100.00;97957.34;6296025;28;20198;-53
2024/02/16 05:28:58;;;;;;;9.37;7.93;;;;;;;0.22;100.00;97957.66;6294378;28;20190;-53
2024/02/16 05:32:00;;;;;;;11.57;8.57;;;;;;;0.30;100.00;97954.19;6299889;28;20594;-51
2024/02/16 05:35:11;;;;;;;10.70;8.03;;;;;;;0.01;100.00;97954.78;6300907;28;20218;-52
2024/02/16 05:38:31;;;;;;;10.97;8.27;;;;;;;-0.02;100.00;97955.91;6302913;28;21278;-52
2024/02/16 05:41:36;;;;;;;14.17;8.50;;;;;;;0.12;100.00;97956.22;6308106;28;20321;-53
2024/02/16 05:44:38;;;;;;;10.53;8.23;;;;;;;-0.03;100.00;97943.00;6306098;28;20574;-54
2024/02/16 05:47:42;;;;;;;8.83;7.13;;;;;;;0.12;100.00;97949.19;6302690;28;20281;-53
2024/02/16 05:50:45;;;;;;;13.30;8.77;;;;;;;-0.01;100.00;97946.25;6301637;28;20183;-54
2024/02/16 05:53:47;;;;;;;13.80;8.00;;;;;;;0.00;100.00;97955.78;6302611;28;20615;-54
2024/02/16 05:56:50;;;;;;;10.57;7.17;;;;;;;-0.07;100.00;97965.25;6299327;28;20830;-56
2024/02/16 05:59:52;;;;;;;9.20;7.03;;;;;;;0.03;100.00;97954.59;6314791;28;20213;-54
2024/02/16 06:02:56;;;;;;;10.10;7.50;;;;;;;0.12;100.00;97956.22;6312285;28;20628;-54
2024/02/16 06:05:58;;;;;;;11.53;7.53;;;;;;;-0.11;100.00;97958.72;6306417;28;20190;-54
2024/02/16 06:09:01;;;;;;;11.83;7.50;;;;;;;-0.10;100.00;97965.59;6299928;28;20193;-51
2024/02/16 06:12:04;;;;;;;11.30;7.70;;;;;;;-0.06;100.00;97954.63;6307033;28;20626;-52
2024/02/16 06:15:07;;;;;;;11.57;8.20;;;;;;;0.12;100.00;97969.31;6312480;28;20254;-54
2024/02/16 06:18:10;;;;;;;8.63;7.17;;;;;;;0.04;100.00;97967.53;6304503;28;20660;-52
2024/02/16 06:21:13;;;;;;;9.50;6.37;;;;;;;0.21;100.00;97961.25;6299374;28;20214;-53
2024/02/16 06:24:15;;;;;;;8.67;7.30;;;;;;;-0.02;100.00;97965.59;6301025;28;20187;-52
2024/02/16 06:27:17;;;;;;;9.20;7.10;;;;;;;-0.05;100.00;97984.22;6305282;28;20204;-54
2024/02/16 06:30:19;;;;;;;9.93;6.57;;;;;;;0.20;100.00;97983.22;6298516;28;20198;-52
2024/02/16 06:33:21;;;;;;;9.33;6.83;;;;;;;-0.03;100.00;97985.72;6310749;28;20318;-54
2024/02/16 06:36:24;;;;;;;11.07;7.40;;;;;;;-0.05;100.00;97979.84;6305443;28;20193;-53
2024/02/16 06:39:26;;;;;;;8.73;6.67;;;;;;;-0.07;100.00;97966.09;6306864;28;20349;-52
2024/02/16 06:42:29;;;;;;;10.70;6.43;;;;;;;0.11;100.00;97993.88;6303757;28;20234;-53
2024/02/16 06:45:31;;;;;;;12.10;7.47;;;;;;;0.05;100.00;97995.38;6302647;28;20200;-54
2024/02/16 06:48:33;;;;;;;16.33;8.07;;;;;;;0.08;100.00;97989.78;6307751;28;20205;-53
2024/02/16 06:51:37;;;;;;;12.23;6.83;;;;;;;0.42;100.00;97994.75;6303676;28;20182;-55
2024/02/16 06:54:39;;;;;;;12.10;7.77;;;;;;;0.18;100.00;98000.06;6309458;28;20232;-53
2024/02/16 06:57:41;;;;;;;13.60;7.77;;;;;;;0.16;100.00;97992.38;6306787;28;20195;-53
2024/02/16 07:00:43;;;;;;;14.67;7.47;;;;;;;0.28;100.00;98007.75;6310297;28;20209;-52
2024/02/16 07:03:46;;;;;;;11.00;7.20;;;;;;;0.39;100.00;98010.81;6301463;28;20287;-55
2024/02/16 07:06:48;;;;;;;12.97;7.70;;;;;;;0.22;100.00;98002.19;6309007;28;20604;-53
2024/02/16 07:09:50;;;;;;;11.57;8.37;;;;;;;0.32;100.00;98009.03;6315374;28;20665;-51
2024/02/16 07:12:53;;;;;;;10.00;7.47;;;;;;;0.69;100.00;98009.25;6311703;28;20195;-51
2024/02/16 07:15:55;;;;;;;11.83;8.90;;;;;;;0.52;100.00;98011.09;6307907;28;20186;-53
2024/02/16 07:18:57;;;;;;;14.33;8.87;;;;;;;0.60;100.00;98009.44;6302422;28;20696;-54
2024/02/16 07:21:59;;;;;;;12.43;9.50;;;;;;;0.62;100.00;98016.13;6316198;28;20205;-53
2024/02/16 07:25:03;;;;;;;14.70;10.03;;;;;;;0.75;100.00;98010.34;6315753;28;20194;-54
2024/02/16 07:28:05;;;;;;;16.67;11.33;;;;;;;0.86;100.00;97996.84;6309509;28;20188;-54
2024/02/16 07:31:07;;;;;;;15.00;10.13;;;;;;;0.92;100.00;97990.09;6307108;28;20233;-54
2024/02/16 07:34:11;;;;;;;14.47;10.67;;;;;;;1.15;100.00;97993.56;6310428;28;20190;-54
2024/02/16 07:37:16;;;;;;;14.60;10.87;;;;;;;1.12;100.00;97970.28;6312680;28;20709;-54
2024/02/16 07:40:18;;;;;;;13.00;10.33;;;;;;;1.23;100.00;97990.06;6309140;28;20232;-53
2024/02/16 07:43:21;;;;;;;21.33;12.20;;;;;;;1.34;100.00;97991.47;6303465;28;20707;-51
2024/02/16 07:46:24;;;;;;;16.17;10.63;;;;;;;1.58;100.00;97983.41;6294038;28;20198;-54
2024/02/16 07:49:26;;;;;;;13.20;10.47;;;;;;;1.58;100.00;97993.91;6297314;28;20191;-53
2024/02/16 07:52:28;;;;;;;14.20;10.03;;;;;;;1.68;100.00;97991.84;6305363;28;20687;-55
2024/02/16 07:55:30;;;;;;;15.83;10.87;;;;;;;1.79;100.00;97980.91;6311459;28;20236;-55
2024/02/16 07:58:33;;;;;;;12.37;9.43;;;;;;;2.21;100.00;97986.56;6304673;28;20201;-53
2024/02/16 08:01:35;;;;;;;13.83;9.40;;;;;;;2.12;100.00;97999.00;6307773;28;20203;-53
2024/02/16 08:04:37;;;;;;;12.23;9.27;;;;;;;2.35;100.00;97990.19;6297224;28;20290;-53
2024/02/16 08:07:42;;;;;;;16.33;9.80;;;;;;;2.49;100.00;97987.56;6305127;28;20682;-53
2024/02/16 08:10:45;;;;;;;14.57;10.00;;;;;;;2.63;100.00;97995.63;6296620;28;20661;-53
2024/02/16 08:13:47;;;;;;;14.70;9.33;;;;;;;2.61;100.00;97993.19;6296426;28;20681;-56
2024/02/16 08:16:49;;;;;;;10.57;8.13;;;;;;;2.93;100.00;97983.22;6306666;28;20201;-52
2024/02/16 08:19:56;;;;;;;12.63;8.83;;;;;;;2.92;100.00;97986.88;6304882;28;20204;-55
2024/02/16 08:22:59;;;;;;;12.47;7.40;;;;;;;2.98;100.00;97986.13;6305323;28;20271;-55
2024/02/16 08:26:01;;;;;;;9.77;7.37;;;;;;;3.14;100.00;97977.97;6299391;28;20717;-55
2024/02/16 08:29:03;;;;;;;8.87;7.07;;;;;;;3.40;100.00;97990.63;6301550;28;20201;-56
2024/02/16 08:32:05;;;;;;;11.83;7.87;;;;;;;3.71;100.00;97985.00;6308449;28;20200;-55
2024/02/16 08:35:08;;;;;;;8.80;7.23;;;;;;;3.88;100.00;97982.91;6308558;28;20209;-56
2024/02/16 08:38:10;;;;;;;8.57;6.80;;;;;;;4.09;100.00;97988.13;6302512;28;20745;-56
2024/02/16 08:41:13;;;;;;;8.10;6.33;;;;;;;4.40;100.00;97989.53;6304560;28;20228;-56
2024/02/16 08:44:15;;;;;;;9.73;6.43;;;;;;;4.71;100.00;97986.44;6308373;28;20809;-54
2024/02/16 08:47:18;;;;;;;7.57;6.27;;;;;;;4.92;100.00;97994.22;6309094;28;20700;-55
2024/02/16 08:50:20;;;;;;;9.37;6.20;;;;;;;5.00;100.00;97963.38;6309032;28;20190;-56
2024/02/16 08:53:22;;;;;;;6.57;5.17;;;;;;;5.45;100.00;97996.19;6308352;28;20251;-56
2024/02/16 08:56:24;;;;;;;6.80;5.20;;;;;;;5.81;100.00;97979.97;6302566;28;20195;-55
2024/02/16 08:59:28;;;;;;;7.17;4.97;;;;;;;6.06;100.00;97984.63;6311467;28;20209;-56
2024/02/16 09:02:30;;;;;;;6.53;4.80;;;;;;;6.71;100.00;97988.97;6293498;28;20214;-54
2024/02/16 09:05:32;;;;;;;5.90;3.80;;;;;;;7.41;100.00;97981.06;6312217;28;20195;-56
2024/02/16 09:08:35;;;;;;;5.93;4.70;;;;;;;7.65;100.00;97992.75;6306271;28;20339;-54
2024/02/16 09:11:37;;;;;;;5.53;4.33;;;;;;;7.88;100.00;97978.06;6298345;28;20192;-56
2024/02/16 09:14:39;;;;;;;4.73;3.37;;;;;;;8.15;100.00;97983.97;6307691;28;20279;-55
2024/02/16 09:17:42;;;;;;;4.97;3.70;;;;;;;8.37;97.08;97979.06;6302087;28;20260;-56
2024/02/16 09:20:44;;;;;;;6.23;4.00;;;;;;;8.90;88.86;98000.56;6301354;28;20834;-55
2024/02/16 09:23:46;;;;;;;4.63;3.40;;;;;;;9.02;90.40;97990.81;6302670;28;20185;-56
2024/02/16 09:26:48;;;;;;;4.63;3.10;;;;;;;9.33;84.22;98012.88;6306022;28;20194;-55
2024/02/16 09:29:50;;;;;;;5.73;3.80;;;;;;;9.73;81.51;97999.03;6308085;28;20195;-56
2024/02/16 09:32:53;;;;;;;4.17;3.77;;;;;;;9.83;80.86;97999.25;6304153;28;20755;-55
2024/02/16 09:35:55;;;;;;;4.60;3.00;;;;;;;9.99;85.08;97997.78;6299379;28;20210;-55
2024/02/16 09:38:58;;;;;;;3.83;3.03;;;;;;;10.25;84.32;98009.88;6295601;28;20210;-55
2024/02/16 09:42:00;;;;;;;4.63;3.47;;;;;;;10.24;79.51;97977.09;6305042;28;20601;-56
2024/02/16 09:45:06;;;;;;;4.23;3.07;;;;;;;10.56;79.79;98017.50;6301009;28;20373;-55
2024/02/16 09:48:09;;;;;;;4.77;2.97;;;;;;;10.75;77.38;98009.38;6301206;28;20216;-56
2024/02/16 09:51:12;;;;;;;3.10;2.80;;;;;;;10.98;74.66;98011.16;6306561;28;20813;-55
2024/02/16 09:54:15;;;;;;;4.13;2.80;;;;;;;11.19;78.78;98012.41;6306794;28;20202;-56
2024/02/16 09:57:18;;;;;;;5.27;3.30;;;;;;;11.35;72.78;97991.09;6300821;28;20197;-57
2024/02/16 10:00:20;;;;;;;3.53;2.67;;;;;;;11.70;67.84;98010.66;6304620;28;20647;-54
2024/02/16 10:03:34;;;;;;;4.07;2.90;;;;;;;11.91;69.96;98009.16;6309128;28;20193;-56
2024/02/16 10:06:50;;;;;;;3.33;2.33;;;;;;;12.12;68.93;98003.13;6306079;28;20284;-54
2024/02/16 10:09:52;;;;;;;6.13;2.73;;;;;;;12.29;72.34;98011.09;6297660;28;20277;-57
2024/02/16 10:13:08;;;;;;;4.70;2.67;;;;;;;12.43;67.04;98014.25;6295411;28;20190;-56
2024/02/16 10:16:11;;;;;;;3.80;2.47;;;;;;;12.62;63.81;98008.38;6303749;28;20191;-57
2024/02/16 10:19:17;;;;;;;3.77;2.07;;;;;;;12.60;64.32;98005.13;6300862;28;20186;-55
2024/02/16 10:22:22;;;;;;;4.23;2.30;;;;;;;12.77;63.83;98025.69;6312570;28;20687;-53
2024/02/16 10:25:25;;;;;;;2.00;1.80;;;;;;;12.96;62.02;98010.16;6306121;28;20255;-55
2024/02/16 10:28:31;;;;;;;2.33;1.60;;;;;;;13.10;59.82;98014.88;6315136;28;20668;-55
2024/02/16 10:31:33;;;;;;;2.97;2.00;;;;;;;13.03;59.43;98010.75;6308766;28;20187;-56
2024/02/16 10:34:37;;;;;;;3.90;1.80;;;;;;;12.96;60.30;98018.97;6309990;28;20198;-55
2024/02/16 10:37:40;;;;;;;2.20;1.70;;;;;;;13.06;59.70;98005.72;6315593;28;20243;-54
2024/02/16 10:40:42;;;;;;;2.77;1.70;;;;;;;13.19;60.13;98009.88;6310354;28;20292;-57
2024/02/16 10:43:49;;;;;;;2.77;2.03;;;;;;;13.29;61.39;98009.22;6298221;28;20279;-54
2024/02/16 10:46:52;;;;;;;1.60;1.50;;;;;;;13.37;58.67;98006.09;6304373;28;20337;-57
2024/02/16 10:49:55;;;;;;;2.40;1.87;;;;;;;13.42;58.80;97993.56;6309588;28;20229;-54
2024/02/16 10:53:03;;;;;;;3.87;1.43;;;;;;;13.38;59.96;98002.34;6313770;28;20197;-56
2024/02/16 10:56:07;;;;;;;2.47;1.73;;;;;;;13.43;60.77;98008.56;6318699;28;20439;-57
2024/02/16 10:59:10;;;;;;;2.13;1.53;;;;;;;13.60;59.14;98000.44;6308582;28;20194;-57
2024/02/16 11:02:12;;;;;;;1.50;1.33;;;;;;;13.77;57.18;97991.50;6309046;28;20210;-57
2024/02/16 11:05:19;;;;;;;2.67;1.33;;;;;;;13.67;57.27;97970.78;6306813;28;20200;-57
2024/02/16 11:08:28;;;;;;;1.67;1.23;;;;;;;13.79;57.48;97984.84;6309675;28;20193;-57
2024/02/16 11:11:31;;;;;;;2.03;1.27;;;;;;;13.88;58.13;97985.97;6309665;28;20231;-56
2024/02/16 11:14:43;;;;;;;1.73;1.30;;;;;;;13.95;55.66;97972.38;6306031;28;20900;-55
2024/02/16 11:17:46;;;;;;;1.27;1.10;;;;;;;14.04;53.53;97989.59;6300402;28;20194;-55
2024/02/16 11:20:49;;;;;;;1.27;1.10;;;;;;;13.76;54.41;97973.81;6304938;28;20222;-56
2024/02/16 11:24:03;;;;;;;1.83;1.00;;;;;;;13.95;54.66;97985.75;6310259;28;20298;-56
2024/02/16 11:27:07;;;;;;;2.57;1.13;;;;;;;13.94;53.87;97957.38;6300021;28;20257;-55
2024/02/16 11:30:11;;;;;;;1.50;1.10;;;;;;;14.01;54.21;97986.59;6332471;27;20179;-57
2024/02/16 11:33:14;;;;;;;1.87;1.23;;;;;;;13.95;53.16;97999.16;6312084;28;20197;-56
2024/02/16 11:36:19;;;;;;;1.77;1.20;;;;;;;13.84;53.76;97963.44;6304924;28;20203;-55
2024/02/16 11:39:22;;;;;;;2.47;1.20;;;;;;;13.98;52.84;97974.53;6312113;28;20203;-56
2024/02/16 11:42:24;;;;;;;1.63;1.10;;;;;;;14.02;53.35;97990.91;6302258;28;20238;-57
2024/02/16 11:45:26;;;;;;;1.23;1.13;;;;;;;14.06;53.48;97984.78;6306887;28;20709;-56
2024/02/16 11:48:29;;;;;;;2.50;1.10;;;;;;;14.17;52.59;97986.44;6302603;28;20198;-55
2024/02/16 11:51:32;;;;;;;1.57;1.10;;;;;;;14.24;52.61;97985.44;6311751;28;20197;-57
2024/02/16 11:54:36;;;;;;;1.17;0.90;;;;;;;14.45;51.36;97987.97;6302756;28;20212;-55
2024/02/16 11:57:39;;;;;;;1.70;1.20;;;;;;;14.34;52.01;97994.34;6308324;28;20213;-55
2024/02/16 12:00:42;;;;;;;1.00;0.80;;;;;;;14.41;51.44;97975.34;6311736;28;20194;-57
2024/02/16 12:03:46;;;;;;;1.70;0.90;;;;;;;14.54;51.50;97974.13;6300073;28;20190;-55
2024/02/16 12:06:49;;;;;;;1.20;1.10;;;;;;;14.51;50.72;97972.75;6300098;28;20226;-56
2024/02/16 12:09:59;;;;;;;0.80;0.80;;;;;;;14.51;52.02;97975.44;6303571;28;20534;-55
2024/02/16 12:13:01;;;;;;;1.10;1.00;;;;;;;14.63;50.87;97976.06;6307281;28;20201;-56
2024/02/16 12:16:08;;;;;;;1.20;1.10;;;;;;;14.69;51.76;97982.25;6299343;28;20286;-56
2024/02/16 12:19:11;;;;;;;4.13;1.30;;;;;;;14.78;50.55;97979.84;6297015;28;20194;-56
2024/02/16 12:22:18;;;;;;;0.80;0.80;;;;;;;14.66;50.31;97972.84;6311224;28;20214;-55
2024/02/16 12:25:21;;;;;;;1.77;1.00;;;;;;;14.52;51.57;97976.25;6296852;28;20190;-56
2024/02/16 12:28:28;;;;;;;3.90;0.90;;;;;;;14.61;50.22;97969.34;6303196;28;20198;-55
2024/02/16 12:31:31;;;;;;;2.20;1.10;;;;;;;14.56;51.58;97962.06;6310804;28;20198;-56
2024/02/16 12:34:33;;;;;;;2.10;1.20;;;;;;;14.70;49.95;97962.41;6310455;28;20668;-55
2024/02/16 12:37:37;;;;;;;1.33;0.90;;;;;;;14.80;49.99;97975.88;6312527;28;20190;-55
2024/02/16 12:40:40;;;;;;;1.97;0.90;;;;;;;14.54;49.85;97964.22;6297998;28;20230;-56
2024/02/16 12:43:42;;;;;;;1.23;1.13;;;;;;;14.47;50.41;97971.63;6303153;28;20753;-56
2024/02/16 12:46:44;;;;;;;1.47;1.00;;;;;;;14.52;50.59;97969.00;6308096;28;20190;-54
2024/02/16 12:49:46;;;;;;;2.13;1.23;;;;;;;14.39;50.72;97967.59;6303587;28;20198;-56
2024/02/16 12:52:48;;;;;;;1.10;1.00;;;;;;;14.37;50.16;97969.69;6309592;28;20862;-54
2024/02/16 12:56:00;;;;;;;2.17;1.10;;;;;;;14.24;50.96;97961.31;6312676;28;20704;-54
2024/02/16 12:59:02;;;;;;;1.53;1.20;;;;;;;14.21;50.95;97970.69;6304032;28;20230;-54
2024/02/16 13:02:04;;;;;;;3.57;1.00;;;;;;;14.31;50.77;97964.56;6304167;28;20199;-56
2024/02/16 13:05:08;;;;;;;3.17;1.10;;;;;;;14.12;50.66;97973.03;6300325;28;21186;-55
2024/02/16 13:08:10;;;;;;;0.90;0.90;;;;;;;14.16;50.84;97966.09;6303100;28;20204;-55
2024/02/16 13:11:12;;;;;;;1.23;0.90;;;;;;;14.18;51.64;97963.94;6298053;28;20566;-55
2024/02/16 13:14:15;;;;;;;1.47;1.00;;;;;;;14.09;52.74;97967.38;6300686;28;20190;-53
2024/02/16 13:17:18;;;;;;;2.57;1.50;;;;;;;14.01;54.33;97960.63;6304066;28;20680;-56
2024/02/16 13:20:20;;;;;;;2.73;1.60;;;;;;;14.05;54.82;97964.41;6309601;28;20672;-56
2024/02/16 13:23:22;;;;;;;2.50;1.67;;;;;;;13.98;54.77;97976.41;6298858;28;20357;-55
2024/02/16 13:26:24;;;;;;;1.70;1.60;;;;;;;13.89;55.24;97976.88;6300484;28;20193;-55
2024/02/16 13:29:27;;;;;;;4.67;2.27;;;;;;;13.51;56.52;97974.41;6304235;28;20672;-56
2024/02/16 13:32:29;;;;;;;2.13;1.60;;;;;;;13.39;57.78;97975.34;6307087;28;20194;-54
2024/02/16 13:35:32;;;;;;;2.13;1.80;;;;;;;13.39;57.69;97969.19;6301403;28;20562;-56
2024/02/16 13:38:34;;;;;;;2.97;2.30;;;;;;;13.32;57.87;97979.28;6301017;28;20554;-55
2024/02/16 13:41:36;;;;;;;2.30;1.83;;;;;;;13.07;58.90;97977.91;6301045;28;20230;-55
2024/02/16 13:44:39;;;;;;;4.83;2.20;;;;;;;13.04;60.19;97970.38;6323261;28;20203;-56
2024/02/16 13:47:41;;;;;;;2.00;1.70;;;;;;;12.99;59.04;97972.19;6315150;28;20327;-56
2024/02/16 13:50:45;;;;;;;2.77;2.00;;;;;;;12.81;59.97;97976.81;6317505;28;20277;-55
2024/02/16 13:53:47;;;;;;;4.10;2.20;;;;;;;12.84;60.10;97978.97;6297969;28;20514;-54
2024/02/16 13:56:50;;;;;;;2.63;2.13;;;;;;;12.81;59.85;97979.50;6304592;28;20321;-54
2024/02/16 13:59:52;;;;;;;3.63;2.13;;;;;;;12.72;61.03;97983.66;6299006;28;20205;-54
2024/02/16 14:02:54;;;;;;;2.83;2.03;;;;;;;12.76;59.91;97965.22;6303715;28;20209;-54
2024/02/16 14:05:57;;;;;;;3.47;2.30;;;;;;;12.83;59.67;97987.25;6308703;28;20207;-53
2024/02/16 14:08:59;;;;;;;4.57;1.90;;;;;;;12.64;60.62;97976.84;6311635;28;20214;-56
2024/02/16 14:12:02;;;;;;;3.23;2.20;;;;;;;12.49;61.90;97982.00;6309361;28;20190;-56